DAAP

Illizi Takhamalt Airport

Illizi, Algeria
METAR DAAP 210400Z 15004KT CAVOK 32/04 Q1013
Observed Flight Rules
Jul-21 @ 04:00 UTC (23 minutes ago) Visual Flight Rules
Wind Visibility Clouds
150° at 4 knots 10,000+ meters
  • Clear skies
Temperatures Readings
Current 32°C / 90°F
Dewpoint 4°C / 39°F
Humidity 17%
Altimeter 29.91" Hg
Pressure 1013 hPa
Elevation 558
METAR DAAP 210400Z 15004KT CAVOK 32/04 Q1013
Observed Flight Rules
Jul-21 @ 04:00 UTC
(23 minutes ago)
VFR
Wind Visibility
150° at 4 knots 10,000+ meters
Clouds
  • Clear skies
Temperature Dewpoint
32°C / 90°F 4°C / 39°F
Humidity Altimeter Pressure
17% 29.91" Hg 1013 hPa